Hauptseite
METAR-TAF:

METAR-TAF

Flughäfen :

Stuttgart, Deutschland

Flughafen Stuttgart

Breite: 48-41N, Länge: 009-13E, Höhe: 396 m

Beobachtung

Neuester Wetterbericht von vor 16 Minuten, um 00:20 UTC
Wind 12 kt aus Nordost
Temperatur -2°C
Luftfeuchtigkeit 74%
Luftdruck 1015 hPa
Sichtweite 10 km oder mehr
Geschlossene Wolkendecke in der Höhe von 2700 ft

METAR: EDDS 240020Z 05012KT 9999 OVC027 M02/M06 Q1015

Zeit: 01:36 (00:36 UTC)

Prognose

Neuester Wetterbericht von vor 1 Stunde und 36 Minuten, um 23:00 UTC
Gültige Prognose vom 24 um 00 UTC bis 24 um 24 UTC
Wind 10 kt aus Nordost
Sichtweite 10 km oder mehr
Durchbrochene Bewölkung in der Höhe von 3000 ft
Übergehend zu
vom 24 um 08 UTC bis 24 um 11 UTC
Wind 15 kt aus Ost/Nordost, Böen bis zu 25 kt

TAF: EDDS 232300Z 2400/2424 05010KT 9999 BKN030 BECMG 2408/2411 06015G25KT

Wetterbeobachtungen und Prognosen von mehr als 4000 Flughäfen (METAR und TAF Bericht).

Die verfügbaren Stationen werden durch gelbe und rote Markierungen auf der Karte dargestellt.

Führen Sie die Maus auf sie, um den Namen der Station zu sehen.

Darauf klicken, um die Beobachtung von Wetterbeobachtungen und Prognosen zu sehen.

Um die Karte zu ändern : klicken Sie auf den grünen Tasten mit einem schwarzen Kreuz Zum Vergrößern, auf den grünen Button mit einem Gedankenstrich zu verkleinern, oder auf die grünen Pfeile für benachbarte Karten.


METAR-TAF: